sensor_id;sensor_type;location;lat;lon;timestamp;P1;durP1;ratioP1;P2;durP2;ratioP2
20166;SDS011;10243;49.118;8.508;2022-10-03T00:00:35;42.00;;;11.75;;
20166;SDS011;10243;49.118;8.508;2022-10-03T00:03:42;76.63;;;13.07;;
20166;SDS011;10243;49.118;8.508;2022-10-03T00:06:55;38.90;;;12.38;;
20166;SDS011;10243;49.118;8.508;2022-10-03T00:10:11;32.38;;;12.13;;
20166;SDS011;10243;49.118;8.508;2022-10-03T00:13:24;63.72;;;12.05;;
20166;SDS011;10243;49.118;8.508;2022-10-03T00:16:36;16.92;;;10.00;;
20166;SDS011;10243;49.118;8.508;2022-10-03T00:19:47;33.33;;;10.15;;
20166;SDS011;10243;49.118;8.508;2022-10-03T00:22:58;42.58;;;10.45;;
20166;SDS011;10243;49.118;8.508;2022-10-03T00:26:13;22.63;;;10.45;;
20166;SDS011;10243;49.118;8.508;2022-10-03T00:29:45;30.92;;;10.35;;
20166;SDS011;10243;49.118;8.508;2022-10-03T00:33:02;12.15;;;10.07;;
20166;SDS011;10243;49.118;8.508;2022-10-03T00:36:11;9.57;;;8.73;;
20166;SDS011;10243;49.118;8.508;2022-10-03T00:39:31;9.82;;;7.40;;
20166;SDS011;10243;49.118;8.508;2022-10-03T00:42:55;8.50;;;7.70;;
20166;SDS011;10243;49.118;8.508;2022-10-03T00:46:22;8.60;;;7.80;;
20166;SDS011;10243;49.118;8.508;2022-10-03T00:50:06;12.73;;;9.23;;
20166;SDS011;10243;49.118;8.508;2022-10-03T00:53:39;12.32;;;9.98;;
20166;SDS011;10243;49.118;8.508;2022-10-03T00:56:58;12.52;;;10.35;;
20166;SDS011;10243;49.118;8.508;2022-10-03T01:00:21;17.58;;;11.07;;
20166;SDS011;10243;49.118;8.508;2022-10-03T01:03:28;15.18;;;10.05;;
20166;SDS011;10243;49.118;8.508;2022-10-03T01:06:42;13.73;;;10.55;;
20166;SDS011;10243;49.118;8.508;2022-10-03T01:09:50;12.23;;;9.57;;
20166;SDS011;10243;49.118;8.508;2022-10-03T01:13:11;10.75;;;8.85;;
20166;SDS011;10243;49.118;8.508;2022-10-03T01:16:24;9.63;;;8.38;;
20166;SDS011;10243;49.118;8.508;2022-10-03T01:19:47;10.77;;;8.75;;
20166;SDS011;10243;49.118;8.508;2022-10-03T01:26:48;8.85;;;8.02;;
20166;SDS011;10243;49.118;8.508;2022-10-03T01:29:56;8.70;;;7.80;;
20166;SDS011;10243;49.118;8.508;2022-10-03T01:33:20;10.88;;;9.88;;
20166;SDS011;10243;49.118;8.508;2022-10-03T01:36:29;8.88;;;7.90;;
20166;SDS011;10243;49.118;8.508;2022-10-03T01:39:36;11.18;;;7.95;;
20166;SDS011;10243;49.118;8.508;2022-10-03T01:42:44;8.65;;;7.55;;
20166;SDS011;10243;49.118;8.508;2022-10-03T01:46:07;8.00;;;7.20;;
20166;SDS011;10243;49.118;8.508;2022-10-03T01:49:18;9.50;;;6.65;;
20166;SDS011;10243;49.118;8.508;2022-10-03T01:52:29;7.72;;;6.72;;
20166;SDS011;10243;49.118;8.508;2022-10-03T01:55:43;11.77;;;6.70;;
20166;SDS011;10243;49.118;8.508;2022-10-03T01:58:56;7.03;;;6.43;;
20166;SDS011;10243;49.118;8.508;2022-10-03T02:02:13;7.25;;;6.57;;
20166;SDS011;10243;49.118;8.508;2022-10-03T02:05:23;7.32;;;6.63;;
20166;SDS011;10243;49.118;8.508;2022-10-03T02:08:42;7.35;;;6.72;;
20166;SDS011;10243;49.118;8.508;2022-10-03T02:11:59;9.77;;;7.25;;
20166;SDS011;10243;49.118;8.508;2022-10-03T02:15:07;7.18;;;6.55;;
20166;SDS011;10243;49.118;8.508;2022-10-03T02:18:25;8.15;;;6.88;;
20166;SDS011;10243;49.118;8.508;2022-10-03T02:21:32;11.02;;;7.05;;
20166;SDS011;10243;49.118;8.508;2022-10-03T02:24:49;8.52;;;6.90;;
20166;SDS011;10243;49.118;8.508;2022-10-03T02:28:01;9.82;;;7.55;;
20166;SDS011;10243;49.118;8.508;2022-10-03T02:31:40;8.73;;;7.35;;
20166;SDS011;10243;49.118;8.508;2022-10-03T02:57:40;20.40;;;8.98;;
20166;SDS011;10243;49.118;8.508;2022-10-03T03:08:30;12.52;;;8.82;;
20166;SDS011;10243;49.118;8.508;2022-10-03T03:11:59;12.45;;;8.93;;
20166;SDS011;10243;49.118;8.508;2022-10-03T03:15:35;10.38;;;9.00;;
20166;SDS011;10243;49.118;8.508;2022-10-03T03:19:03;13.50;;;8.00;;
20166;SDS011;10243;49.118;8.508;2022-10-03T03:22:28;11.27;;;8.02;;
20166;SDS011;10243;49.118;8.508;2022-10-03T03:25:56;9.45;;;6.85;;
20166;SDS011;10243;49.118;8.508;2022-10-03T03:29:04;47.70;;;9.50;;
20166;SDS011;10243;49.118;8.508;2022-10-03T03:32:13;11.18;;;8.40;;
20166;SDS011;10243;49.118;8.508;2022-10-03T03:35:20;9.25;;;7.75;;
20166;SDS011;10243;49.118;8.508;2022-10-03T03:38:30;15.35;;;8.35;;
20166;SDS011;10243;49.118;8.508;2022-10-03T03:41:41;135.33;;;9.57;;
20166;SDS011;10243;49.118;8.508;2022-10-03T03:44:55;40.73;;;8.30;;
20166;SDS011;10243;49.118;8.508;2022-10-03T03:48:13;16.60;;;8.67;;
20166;SDS011;10243;49.118;8.508;2022-10-03T03:51:31;34.40;;;8.00;;
20166;SDS011;10243;49.118;8.508;2022-10-03T03:58:31;62.47;;;6.30;;
20166;SDS011;10243;49.118;8.508;2022-10-03T04:01:45;36.90;;;6.07;;
20166;SDS011;10243;49.118;8.508;2022-10-03T04:05:05;5.80;;;5.30;;
20166;SDS011;10243;49.118;8.508;2022-10-03T04:08:22;7.38;;;6.68;;
20166;SDS011;10243;49.118;8.508;2022-10-03T04:11:30;7.45;;;6.72;;
20166;SDS011;10243;49.118;8.508;2022-10-03T04:14:38;8.15;;;7.18;;
20166;SDS011;10243;49.118;8.508;2022-10-03T04:17:48;6.10;;;5.60;;
20166;SDS011;10243;49.118;8.508;2022-10-03T04:21:20;6.60;;;6.00;;
20166;SDS011;10243;49.118;8.508;2022-10-03T04:24:59;6.00;;;5.47;;
20166;SDS011;10243;49.118;8.508;2022-10-03T04:31:52;6.70;;;5.13;;
20166;SDS011;10243;49.118;8.508;2022-10-03T04:35:10;5.03;;;4.63;;
20166;SDS011;10243;49.118;8.508;2022-10-03T04:38:25;6.27;;;5.43;;
20166;SDS011;10243;49.118;8.508;2022-10-03T04:41:44;3.08;;;2.75;;
20166;SDS011;10243;49.118;8.508;2022-10-03T04:44:57;6.10;;;5.53;;
20166;SDS011;10243;49.118;8.508;2022-10-03T04:48:04;5.97;;;5.47;;
20166;SDS011;10243;49.118;8.508;2022-10-03T04:51:11;6.03;;;4.10;;
20166;SDS011;10243;49.118;8.508;2022-10-03T04:54:21;7.27;;;4.40;;
20166;SDS011;10243;49.118;8.508;2022-10-03T04:57:27;4.57;;;4.20;;
20166;SDS011;10243;49.118;8.508;2022-10-03T05:00:36;5.15;;;4.75;;
20166;SDS011;10243;49.118;8.508;2022-10-03T05:03:51;5.47;;;4.97;;
20166;SDS011;10243;49.118;8.508;2022-10-03T05:07:04;11.10;;;3.83;;
20166;SDS011;10243;49.118;8.508;2022-10-03T05:10:19;125.70;;;8.20;;
20166;SDS011;10243;49.118;8.508;2022-10-03T05:13:28;155.73;;;6.13;;
20166;SDS011;10243;49.118;8.508;2022-10-03T05:16:37;121.27;;;5.20;;
20166;SDS011;10243;49.118;8.508;2022-10-03T05:19:46;58.73;;;4.73;;
20166;SDS011;10243;49.118;8.508;2022-10-03T05:23:03;297.40;;;10.90;;
20166;SDS011;10243;49.118;8.508;2022-10-03T05:26:17;229.00;;;7.50;;
20166;SDS011;10243;49.118;8.508;2022-10-03T05:29:23;274.03;;;9.10;;
20166;SDS011;10243;49.118;8.508;2022-10-03T05:32:29;107.03;;;5.37;;
20166;SDS011;10243;49.118;8.508;2022-10-03T05:35:41;156.10;;;6.50;;
20166;SDS011;10243;49.118;8.508;2022-10-03T05:38:51;147.13;;;13.73;;
20166;SDS011;10243;49.118;8.508;2022-10-03T05:42:18;158.40;;;15.60;;
20166;SDS011;10243;49.118;8.508;2022-10-03T05:45:38;165.07;;;12.47;;
20166;SDS011;10243;49.118;8.508;2022-10-03T05:48:52;87.23;;;7.30;;
20166;SDS011;10243;49.118;8.508;2022-10-03T05:52:12;53.50;;;8.50;;
20166;SDS011;10243;49.118;8.508;2022-10-03T05:55:52;59.93;;;4.13;;
20166;SDS011;10243;49.118;8.508;2022-10-03T05:59:23;99.93;;;5.23;;
20166;SDS011;10243;49.118;8.508;2022-10-03T06:02:42;146.57;;;5.80;;
20166;SDS011;10243;49.118;8.508;2022-10-03T06:06:02;117.67;;;4.87;;
20166;SDS011;10243;49.118;8.508;2022-10-03T06:13:01;316.00;;;9.03;;
20166;SDS011;10243;49.118;8.508;2022-10-03T06:16:24;278.60;;;9.17;;
20166;SDS011;10243;49.118;8.508;2022-10-03T06:19:35;193.63;;;7.20;;
20166;SDS011;10243;49.118;8.508;2022-10-03T06:26:15;54.47;;;5.30;;
20166;SDS011;10243;49.118;8.508;2022-10-03T06:36:58;130.23;;;9.60;;
20166;SDS011;10243;49.118;8.508;2022-10-03T06:40:30;177.27;;;9.80;;
20166;SDS011;10243;49.118;8.508;2022-10-03T06:47:05;73.13;;;8.93;;
20166;SDS011;10243;49.118;8.508;2022-10-03T06:53:37;61.40;;;9.17;;
20166;SDS011;10243;49.118;8.508;2022-10-03T06:56:53;54.93;;;7.87;;
20166;SDS011;10243;49.118;8.508;2022-10-03T07:00:09;17.50;;;6.23;;
20166;SDS011;10243;49.118;8.508;2022-10-03T07:03:20;7.57;;;4.83;;
20166;SDS011;10243;49.118;8.508;2022-10-03T07:06:32;6.70;;;4.67;;
20166;SDS011;10243;49.118;8.508;2022-10-03T07:16:47;22.43;;;12.40;;
20166;SDS011;10243;49.118;8.508;2022-10-03T07:23:33;13.23;;;8.55;;
20166;SDS011;10243;49.118;8.508;2022-10-03T07:27:10;15.48;;;12.25;;
20166;SDS011;10243;49.118;8.508;2022-10-03T07:30:27;14.60;;;10.45;;
20166;SDS011;10243;49.118;8.508;2022-10-03T07:33:35;8.18;;;7.47;;
20166;SDS011;10243;49.118;8.508;2022-10-03T07:36:45;18.20;;;8.88;;
20166;SDS011;10243;49.118;8.508;2022-10-03T07:40:15;15.45;;;9.65;;
20166;SDS011;10243;49.118;8.508;2022-10-03T07:43:37;11.07;;;8.95;;
20166;SDS011;10243;49.118;8.508;2022-10-03T07:47:03;24.17;;;14.50;;
20166;SDS011;10243;49.118;8.508;2022-10-03T07:50:47;17.63;;;11.27;;
20166;SDS011;10243;49.118;8.508;2022-10-03T07:57:56;18.33;;;11.75;;
20166;SDS011;10243;49.118;8.508;2022-10-03T08:01:16;23.15;;;11.32;;
20166;SDS011;10243;49.118;8.508;2022-10-03T08:12:21;34.03;;;16.23;;
20166;SDS011;10243;49.118;8.508;2022-10-03T08:15:48;52.35;;;20.45;;
20166;SDS011;10243;49.118;8.508;2022-10-03T08:19:05;31.75;;;16.40;;
20166;SDS011;10243;49.118;8.508;2022-10-03T08:22:25;36.63;;;18.05;;
20166;SDS011;10243;49.118;8.508;2022-10-03T08:25:45;34.63;;;17.55;;
20166;SDS011;10243;49.118;8.508;2022-10-03T08:29:00;36.90;;;18.42;;
20166;SDS011;10243;49.118;8.508;2022-10-03T08:32:36;34.97;;;18.38;;
20166;SDS011;10243;49.118;8.508;2022-10-03T08:39:34;39.08;;;16.60;;
20166;SDS011;10243;49.118;8.508;2022-10-03T08:42:58;34.03;;;15.60;;
20166;SDS011;10243;49.118;8.508;2022-10-03T08:46:24;34.45;;;15.98;;
20166;SDS011;10243;49.118;8.508;2022-10-03T08:49:56;35.08;;;15.75;;
20166;SDS011;10243;49.118;8.508;2022-10-03T08:53:23;40.22;;;16.95;;
20166;SDS011;10243;49.118;8.508;2022-10-03T08:56:58;35.67;;;16.52;;
20166;SDS011;10243;49.118;8.508;2022-10-03T09:00:14;38.85;;;20.73;;
20166;SDS011;10243;49.118;8.508;2022-10-03T09:03:39;41.25;;;18.65;;
20166;SDS011;10243;49.118;8.508;2022-10-03T09:07:18;36.97;;;16.60;;
20166;SDS011;10243;49.118;8.508;2022-10-03T09:10:51;37.35;;;16.33;;
20166;SDS011;10243;49.118;8.508;2022-10-03T09:14:24;31.80;;;16.60;;
20166;SDS011;10243;49.118;8.508;2022-10-03T09:17:56;36.13;;;15.85;;
20166;SDS011;10243;49.118;8.508;2022-10-03T09:21:38;41.45;;;16.98;;
20166;SDS011;10243;49.118;8.508;2022-10-03T09:28:39;28.75;;;16.38;;
20166;SDS011;10243;49.118;8.508;2022-10-03T09:32:23;33.13;;;14.73;;
20166;SDS011;10243;49.118;8.508;2022-10-03T09:35:50;37.40;;;17.13;;
20166;SDS011;10243;49.118;8.508;2022-10-03T09:39:23;33.25;;;15.27;;
20166;SDS011;10243;49.118;8.508;2022-10-03T09:42:57;30.27;;;13.60;;
20166;SDS011;10243;49.118;8.508;2022-10-03T09:46:41;33.28;;;11.82;;
20166;SDS011;10243;49.118;8.508;2022-10-03T09:54:05;30.27;;;12.45;;
20166;SDS011;10243;49.118;8.508;2022-10-03T09:58:01;32.90;;;12.57;;
20166;SDS011;10243;49.118;8.508;2022-10-03T10:01:18;27.73;;;12.73;;
20166;SDS011;10243;49.118;8.508;2022-10-03T10:04:43;24.67;;;13.80;;
20166;SDS011;10243;49.118;8.508;2022-10-03T10:08:26;29.63;;;13.40;;
20166;SDS011;10243;49.118;8.508;2022-10-03T10:11:46;24.73;;;10.73;;
20166;SDS011;10243;49.118;8.508;2022-10-03T10:26:05;33.47;;;15.48;;
20166;SDS011;10243;49.118;8.508;2022-10-03T10:37:00;15.13;;;7.82;;
20166;SDS011;10243;49.118;8.508;2022-10-03T10:55:24;16.90;;;7.38;;
20166;SDS011;10243;49.118;8.508;2022-10-03T11:13:45;18.88;;;6.97;;
20166;SDS011;10243;49.118;8.508;2022-10-03T11:20:46;15.52;;;6.38;;
20166;SDS011;10243;49.118;8.508;2022-10-03T11:28:10;16.67;;;6.95;;
20166;SDS011;10243;49.118;8.508;2022-10-03T11:39:12;13.65;;;6.75;;
20166;SDS011;10243;49.118;8.508;2022-10-03T11:42:28;15.80;;;5.32;;
20166;SDS011;10243;49.118;8.508;2022-10-03T11:45:41;18.73;;;5.60;;
20166;SDS011;10243;49.118;8.508;2022-10-03T11:48:50;11.75;;;5.68;;
20166;SDS011;10243;49.118;8.508;2022-10-03T11:52:01;11.63;;;4.68;;
20166;SDS011;10243;49.118;8.508;2022-10-03T11:55:18;16.83;;;4.63;;
20166;SDS011;10243;49.118;8.508;2022-10-03T11:58:29;13.18;;;4.47;;
20166;SDS011;10243;49.118;8.508;2022-10-03T12:01:49;6.95;;;3.92;;
20166;SDS011;10243;49.118;8.508;2022-10-03T12:05:02;9.68;;;3.85;;
20166;SDS011;10243;49.118;8.508;2022-10-03T12:08:19;13.77;;;4.30;;
20166;SDS011;10243;49.118;8.508;2022-10-03T12:11:48;13.75;;;4.15;;
20166;SDS011;10243;49.118;8.508;2022-10-03T12:15:02;16.63;;;4.40;;
20166;SDS011;10243;49.118;8.508;2022-10-03T12:18:17;9.40;;;4.05;;
20166;SDS011;10243;49.118;8.508;2022-10-03T12:21:33;10.57;;;3.95;;
20166;SDS011;10243;49.118;8.508;2022-10-03T12:24:43;7.55;;;3.90;;
20166;SDS011;10243;49.118;8.508;2022-10-03T12:27:56;12.70;;;4.35;;
20166;SDS011;10243;49.118;8.508;2022-10-03T12:31:05;11.10;;;4.03;;
20166;SDS011;10243;49.118;8.508;2022-10-03T12:34:22;12.00;;;3.45;;
20166;SDS011;10243;49.118;8.508;2022-10-03T12:37:42;9.60;;;3.67;;
20166;SDS011;10243;49.118;8.508;2022-10-03T12:40:54;10.55;;;3.55;;
20166;SDS011;10243;49.118;8.508;2022-10-03T12:44:10;6.85;;;3.72;;
20166;SDS011;10243;49.118;8.508;2022-10-03T12:47:25;9.02;;;3.50;;
20166;SDS011;10243;49.118;8.508;2022-10-03T12:50:52;9.80;;;3.75;;
20166;SDS011;10243;49.118;8.508;2022-10-03T12:54:06;10.90;;;3.22;;
20166;SDS011;10243;49.118;8.508;2022-10-03T13:00:59;8.13;;;2.60;;
20166;SDS011;10243;49.118;8.508;2022-10-03T13:04:13;10.93;;;3.72;;
20166;SDS011;10243;49.118;8.508;2022-10-03T13:07:32;12.73;;;3.72;;
20166;SDS011;10243;49.118;8.508;2022-10-03T13:10:53;4.47;;;3.10;;
20166;SDS011;10243;49.118;8.508;2022-10-03T13:14:15;11.45;;;3.72;;
20166;SDS011;10243;49.118;8.508;2022-10-03T13:17:33;6.70;;;3.42;;
20166;SDS011;10243;49.118;8.508;2022-10-03T13:20:52;9.07;;;3.53;;
20166;SDS011;10243;49.118;8.508;2022-10-03T13:24:12;9.75;;;3.65;;
20166;SDS011;10243;49.118;8.508;2022-10-03T13:27:30;6.18;;;3.10;;
20166;SDS011;10243;49.118;8.508;2022-10-03T13:30:44;7.63;;;3.15;;
20166;SDS011;10243;49.118;8.508;2022-10-03T13:33:51;10.05;;;3.20;;
20166;SDS011;10243;49.118;8.508;2022-10-03T13:36:58;10.10;;;3.33;;
20166;SDS011;10243;49.118;8.508;2022-10-03T13:40:12;10.90;;;2.88;;
20166;SDS011;10243;49.118;8.508;2022-10-03T13:43:19;10.10;;;3.20;;
20166;SDS011;10243;49.118;8.508;2022-10-03T13:46:29;13.55;;;3.28;;
20166;SDS011;10243;49.118;8.508;2022-10-03T13:49:46;6.13;;;3.03;;
20166;SDS011;10243;49.118;8.508;2022-10-03T13:52:56;6.60;;;3.30;;
20166;SDS011;10243;49.118;8.508;2022-10-03T13:56:10;46.65;;;3.67;;
20166;SDS011;10243;49.118;8.508;2022-10-03T13:59:25;9.27;;;3.42;;
20166;SDS011;10243;49.118;8.508;2022-10-03T14:06:17;6.07;;;3.13;;
20166;SDS011;10243;49.118;8.508;2022-10-03T14:09:37;6.28;;;3.35;;
20166;SDS011;10243;49.118;8.508;2022-10-03T14:13:01;7.13;;;3.40;;
20166;SDS011;10243;49.118;8.508;2022-10-03T14:16:17;5.43;;;2.90;;
20166;SDS011;10243;49.118;8.508;2022-10-03T14:19:28;6.97;;;3.10;;
20166;SDS011;10243;49.118;8.508;2022-10-03T14:22:43;6.68;;;3.22;;
20166;SDS011;10243;49.118;8.508;2022-10-03T14:25:58;8.13;;;2.95;;
20166;SDS011;10243;49.118;8.508;2022-10-03T14:29:07;5.55;;;2.72;;
20166;SDS011;10243;49.118;8.508;2022-10-03T14:32:21;7.18;;;3.10;;
20166;SDS011;10243;49.118;8.508;2022-10-03T14:35:29;8.02;;;3.00;;
20166;SDS011;10243;49.118;8.508;2022-10-03T14:38:52;12.75;;;3.10;;
20166;SDS011;10243;49.118;8.508;2022-10-03T14:42:17;8.65;;;2.58;;
20166;SDS011;10243;49.118;8.508;2022-10-03T14:45:37;5.68;;;2.65;;
20166;SDS011;10243;49.118;8.508;2022-10-03T14:48:43;12.75;;;3.25;;
20166;SDS011;10243;49.118;8.508;2022-10-03T14:51:50;10.20;;;3.50;;
20166;SDS011;10243;49.118;8.508;2022-10-03T14:54:59;6.93;;;3.00;;
20166;SDS011;10243;49.118;8.508;2022-10-03T14:58:12;9.27;;;3.00;;
20166;SDS011;10243;49.118;8.508;2022-10-03T15:01:20;10.73;;;3.58;;
20166;SDS011;10243;49.118;8.508;2022-10-03T15:04:28;6.50;;;3.30;;
20166;SDS011;10243;49.118;8.508;2022-10-03T15:07:33;7.97;;;3.58;;
20166;SDS011;10243;49.118;8.508;2022-10-03T15:10:38;9.43;;;3.42;;
20166;SDS011;10243;49.118;8.508;2022-10-03T15:13:41;9.05;;;3.75;;
20166;SDS011;10243;49.118;8.508;2022-10-03T15:16:48;9.63;;;3.00;;
20166;SDS011;10243;49.118;8.508;2022-10-03T15:19:54;9.55;;;3.17;;
20166;SDS011;10243;49.118;8.508;2022-10-03T15:22:58;10.70;;;3.17;;
20166;SDS011;10243;49.118;8.508;2022-10-03T15:26:01;7.03;;;3.20;;
20166;SDS011;10243;49.118;8.508;2022-10-03T15:29:10;7.30;;;3.10;;
20166;SDS011;10243;49.118;8.508;2022-10-03T15:32:19;5.38;;;3.22;;
20166;SDS011;10243;49.118;8.508;2022-10-03T15:35:27;9.38;;;3.60;;
20166;SDS011;10243;49.118;8.508;2022-10-03T15:38:32;9.85;;;5.13;;
20166;SDS011;10243;49.118;8.508;2022-10-03T15:41:45;13.38;;;4.20;;
20166;SDS011;10243;49.118;8.508;2022-10-03T15:44:51;11.82;;;3.65;;
20166;SDS011;10243;49.118;8.508;2022-10-03T15:47:59;11.45;;;3.35;;
20166;SDS011;10243;49.118;8.508;2022-10-03T15:51:13;6.78;;;3.15;;
20166;SDS011;10243;49.118;8.508;2022-10-03T15:54:19;11.75;;;3.30;;
20166;SDS011;10243;49.118;8.508;2022-10-03T15:57:24;4.32;;;3.13;;
20166;SDS011;10243;49.118;8.508;2022-10-03T16:00:29;7.72;;;3.25;;
20166;SDS011;10243;49.118;8.508;2022-10-03T16:03:34;11.27;;;3.53;;
20166;SDS011;10243;49.118;8.508;2022-10-03T16:06:44;9.20;;;3.22;;
20166;SDS011;10243;49.118;8.508;2022-10-03T16:09:50;6.28;;;3.22;;
20166;SDS011;10243;49.118;8.508;2022-10-03T16:12:56;6.57;;;2.95;;
20166;SDS011;10243;49.118;8.508;2022-10-03T16:16:11;10.35;;;3.67;;
20166;SDS011;10243;49.118;8.508;2022-10-03T16:19:25;12.80;;;3.53;;
20166;SDS011;10243;49.118;8.508;2022-10-03T16:22:34;8.50;;;3.05;;
20166;SDS011;10243;49.118;8.508;2022-10-03T16:25:43;10.35;;;3.20;;
20166;SDS011;10243;49.118;8.508;2022-10-03T16:28:49;7.15;;;3.30;;
20166;SDS011;10243;49.118;8.508;2022-10-03T16:31:58;11.60;;;3.90;;
20166;SDS011;10243;49.118;8.508;2022-10-03T16:35:12;7.85;;;4.32;;
20166;SDS011;10243;49.118;8.508;2022-10-03T16:38:22;10.13;;;4.85;;
20166;SDS011;10243;49.118;8.508;2022-10-03T16:41:25;9.80;;;4.57;;
20166;SDS011;10243;49.118;8.508;2022-10-03T16:44:33;10.48;;;4.32;;
20166;SDS011;10243;49.118;8.508;2022-10-03T16:47:40;15.15;;;4.68;;
20166;SDS011;10243;49.118;8.508;2022-10-03T16:50:45;10.35;;;5.45;;
20166;SDS011;10243;49.118;8.508;2022-10-03T16:53:49;9.93;;;5.97;;
20166;SDS011;10243;49.118;8.508;2022-10-03T16:56:54;7.68;;;5.15;;
20166;SDS011;10243;49.118;8.508;2022-10-03T17:00:00;6.80;;;4.68;;
20166;SDS011;10243;49.118;8.508;2022-10-03T17:03:18;11.32;;;6.00;;
20166;SDS011;10243;49.118;8.508;2022-10-03T17:06:25;11.88;;;5.40;;
20166;SDS011;10243;49.118;8.508;2022-10-03T17:09:32;19.35;;;5.22;;
20166;SDS011;10243;49.118;8.508;2022-10-03T17:12:39;13.88;;;7.95;;
20166;SDS011;10243;49.118;8.508;2022-10-03T17:15:45;12.27;;;4.00;;
20166;SDS011;10243;49.118;8.508;2022-10-03T17:18:55;7.43;;;3.78;;
20166;SDS011;10243;49.118;8.508;2022-10-03T17:22:14;12.40;;;3.95;;
20166;SDS011;10243;49.118;8.508;2022-10-03T17:25:31;7.70;;;3.90;;
20166;SDS011;10243;49.118;8.508;2022-10-03T17:28:39;12.23;;;3.42;;
20166;SDS011;10243;49.118;8.508;2022-10-03T17:31:45;13.05;;;4.40;;
20166;SDS011;10243;49.118;8.508;2022-10-03T17:34:54;9.65;;;4.00;;
20166;SDS011;10243;49.118;8.508;2022-10-03T17:38:05;5.45;;;3.42;;
20166;SDS011;10243;49.118;8.508;2022-10-03T17:41:18;14.23;;;4.40;;
20166;SDS011;10243;49.118;8.508;2022-10-03T17:44:26;18.65;;;4.60;;
20166;SDS011;10243;49.118;8.508;2022-10-03T17:47:40;16.92;;;5.18;;
20166;SDS011;10243;49.118;8.508;2022-10-03T17:50:56;9.10;;;4.43;;
20166;SDS011;10243;49.118;8.508;2022-10-03T17:54:04;14.48;;;5.95;;
20166;SDS011;10243;49.118;8.508;2022-10-03T17:57:15;10.13;;;4.40;;
20166;SDS011;10243;49.118;8.508;2022-10-03T18:00:22;8.88;;;3.97;;
20166;SDS011;10243;49.118;8.508;2022-10-03T18:03:27;8.57;;;4.18;;
20166;SDS011;10243;49.118;8.508;2022-10-03T18:06:37;5.50;;;4.20;;
20166;SDS011;10243;49.118;8.508;2022-10-03T18:09:46;13.48;;;4.60;;
20166;SDS011;10243;49.118;8.508;2022-10-03T18:12:50;11.25;;;4.28;;
20166;SDS011;10243;49.118;8.508;2022-10-03T18:15:59;14.82;;;4.90;;
20166;SDS011;10243;49.118;8.508;2022-10-03T18:19:20;7.70;;;4.70;;
20166;SDS011;10243;49.118;8.508;2022-10-03T18:22:34;6.82;;;3.35;;
20166;SDS011;10243;49.118;8.508;2022-10-03T18:25:48;6.43;;;4.20;;
20166;SDS011;10243;49.118;8.508;2022-10-03T18:29:04;8.50;;;4.00;;
20166;SDS011;10243;49.118;8.508;2022-10-03T18:32:16;12.98;;;5.40;;
20166;SDS011;10243;49.118;8.508;2022-10-03T18:35:22;12.80;;;5.00;;
20166;SDS011;10243;49.118;8.508;2022-10-03T18:38:28;6.15;;;4.30;;
20166;SDS011;10243;49.118;8.508;2022-10-03T18:41:32;10.88;;;5.30;;
20166;SDS011;10243;49.118;8.508;2022-10-03T18:44:34;9.82;;;4.50;;
20166;SDS011;10243;49.118;8.508;2022-10-03T18:47:37;10.20;;;4.15;;
20166;SDS011;10243;49.118;8.508;2022-10-03T18:50:49;15.75;;;4.35;;
20166;SDS011;10243;49.118;8.508;2022-10-03T18:53:58;16.73;;;5.18;;
20166;SDS011;10243;49.118;8.508;2022-10-03T18:57:06;10.77;;;4.88;;
20166;SDS011;10243;49.118;8.508;2022-10-03T19:00:14;7.63;;;4.05;;
20166;SDS011;10243;49.118;8.508;2022-10-03T19:03:18;7.10;;;4.43;;
20166;SDS011;10243;49.118;8.508;2022-10-03T19:06:25;15.32;;;6.75;;
20166;SDS011;10243;49.118;8.508;2022-10-03T19:09:30;16.40;;;5.40;;
20166;SDS011;10243;49.118;8.508;2022-10-03T19:12:37;6.80;;;4.77;;
20166;SDS011;10243;49.118;8.508;2022-10-03T19:15:48;11.25;;;5.45;;
20166;SDS011;10243;49.118;8.508;2022-10-03T19:19:11;7.63;;;4.03;;
20166;SDS011;10243;49.118;8.508;2022-10-03T19:22:23;6.88;;;4.55;;
20166;SDS011;10243;49.118;8.508;2022-10-03T19:25:28;9.37;;;4.67;;
20166;SDS011;10243;49.118;8.508;2022-10-03T19:28:33;16.90;;;5.37;;
20166;SDS011;10243;49.118;8.508;2022-10-03T19:31:37;8.43;;;3.88;;
20166;SDS011;10243;49.118;8.508;2022-10-03T19:34:42;4.03;;;3.70;;
20166;SDS011;10243;49.118;8.508;2022-10-03T19:37:46;7.07;;;4.68;;
20166;SDS011;10243;49.118;8.508;2022-10-03T19:40:51;7.40;;;4.90;;
20166;SDS011;10243;49.118;8.508;2022-10-03T19:44:02;9.23;;;5.10;;
20166;SDS011;10243;49.118;8.508;2022-10-03T19:47:08;19.20;;;6.90;;
20166;SDS011;10243;49.118;8.508;2022-10-03T19:50:16;9.13;;;5.30;;
20166;SDS011;10243;49.118;8.508;2022-10-03T19:53:21;5.07;;;4.53;;
20166;SDS011;10243;49.118;8.508;2022-10-03T19:56:24;15.27;;;4.90;;
20166;SDS011;10243;49.118;8.508;2022-10-03T19:59:42;11.47;;;6.00;;
20166;SDS011;10243;49.118;8.508;2022-10-03T20:02:51;7.37;;;5.10;;
20166;SDS011;10243;49.118;8.508;2022-10-03T20:06:04;9.80;;;4.80;;
20166;SDS011;10243;49.118;8.508;2022-10-03T20:09:18;12.70;;;5.10;;
20166;SDS011;10243;49.118;8.508;2022-10-03T20:12:24;7.13;;;5.13;;
20166;SDS011;10243;49.118;8.508;2022-10-03T20:15:34;5.43;;;4.60;;
20166;SDS011;10243;49.118;8.508;2022-10-03T20:18:43;5.13;;;4.63;;
20166;SDS011;10243;49.118;8.508;2022-10-03T20:21:49;8.10;;;4.30;;
20166;SDS011;10243;49.118;8.508;2022-10-03T20:24:53;3.40;;;3.20;;
20166;SDS011;10243;49.118;8.508;2022-10-03T20:27:55;6.63;;;3.87;;
20166;SDS011;10243;49.118;8.508;2022-10-03T20:31:03;9.33;;;4.10;;
20166;SDS011;10243;49.118;8.508;2022-10-03T20:34:08;4.17;;;3.37;;
20166;SDS011;10243;49.118;8.508;2022-10-03T20:37:19;3.07;;;2.23;;
20166;SDS011;10243;49.118;8.508;2022-10-03T20:40:32;58.73;;;5.93;;
20166;SDS011;10243;49.118;8.508;2022-10-03T20:43:38;51.67;;;4.67;;
20166;SDS011;10243;49.118;8.508;2022-10-03T20:46:45;4.30;;;3.20;;
20166;SDS011;10243;49.118;8.508;2022-10-03T20:49:50;5.17;;;3.43;;
20166;SDS011;10243;49.118;8.508;2022-10-03T20:52:55;7.87;;;4.83;;
20166;SDS011;10243;49.118;8.508;2022-10-03T20:56:00;7.80;;;5.20;;
20166;SDS011;10243;49.118;8.508;2022-10-03T20:59:07;15.30;;;5.60;;
20166;SDS011;10243;49.118;8.508;2022-10-03T21:02:16;7.60;;;5.90;;
20166;SDS011;10243;49.118;8.508;2022-10-03T21:05:29;12.70;;;6.77;;
20166;SDS011;10243;49.118;8.508;2022-10-03T21:08:35;6.80;;;5.33;;
20166;SDS011;10243;49.118;8.508;2022-10-03T21:11:40;12.43;;;7.13;;
20166;SDS011;10243;49.118;8.508;2022-10-03T21:14:44;9.37;;;7.23;;
20166;SDS011;10243;49.118;8.508;2022-10-03T21:17:51;10.17;;;5.80;;
20166;SDS011;10243;49.118;8.508;2022-10-03T21:20:58;6.00;;;5.00;;
20166;SDS011;10243;49.118;8.508;2022-10-03T21:24:04;5.60;;;5.10;;
20166;SDS011;10243;49.118;8.508;2022-10-03T21:27:14;8.47;;;5.90;;
20166;SDS011;10243;49.118;8.508;2022-10-03T21:30:17;5.67;;;5.17;;
20166;SDS011;10243;49.118;8.508;2022-10-03T21:33:24;5.63;;;4.60;;
20166;SDS011;10243;49.118;8.508;2022-10-03T21:36:32;15.17;;;8.53;;
20166;SDS011;10243;49.118;8.508;2022-10-03T21:39:40;6.47;;;5.87;;
20166;SDS011;10243;49.118;8.508;2022-10-03T21:42:52;12.03;;;7.57;;
20166;SDS011;10243;49.118;8.508;2022-10-03T21:46:03;6.17;;;5.67;;
20166;SDS011;10243;49.118;8.508;2022-10-03T21:49:22;7.63;;;6.23;;
20166;SDS011;10243;49.118;8.508;2022-10-03T21:52:50;11.43;;;7.50;;
20166;SDS011;10243;49.118;8.508;2022-10-03T21:59:37;5.90;;;5.30;;
20166;SDS011;10243;49.118;8.508;2022-10-03T22:02:54;5.73;;;5.33;;
20166;SDS011;10243;49.118;8.508;2022-10-03T22:06:08;7.20;;;5.83;;
20166;SDS011;10243;49.118;8.508;2022-10-03T22:09:17;16.27;;;7.13;;